Time;durP1;ratioP1;P1;durP2;ratioP2;P2;SDS_P1;SDS_P2;PMS_P1;PMS_P2;Temp;Humidity;BMP_temperature;BMP_pressure;BME280_temperature;BME280_humidity;BME280_pressure;Samples;Min_cycle;Max_cycle;Signal;HPM_P1;HPM_P2
2021/01/14 00:01:02;;;;;;;9.25;2.22;;;;;;;-0.44;89.27;99546.78;4985304;28;20121;-78
2021/01/14 00:03:29;;;;;;;6.15;1.75;;;;;;;-0.19;89.02;99539.06;4969395;28;20042;-78
2021/01/14 00:06:12;;;;;;;8.57;3.47;;;;;;;-0.36;89.49;99539.63;5001511;28;20919;-80
2021/01/14 00:08:39;;;;;;;9.27;2.15;;;;;;;-0.43;91.23;99538.13;4975295;28;20118;-80
2021/01/14 00:11:05;;;;;;;6.80;2.17;;;;;;;-0.33;92.92;99531.75;4980183;28;20046;-78
2021/01/14 00:13:32;;;;;;;5.10;2.30;;;;;;;-0.63;95.08;99526.69;5002002;28;20042;-79
2021/01/14 00:15:59;;;;;;;6.72;2.47;;;;;;;-0.60;95.98;99530.88;5000592;28;20044;-80
2021/01/14 00:18:26;;;;;;;4.68;1.90;;;;;;;-0.66;96.10;99531.94;4985615;28;20058;-79
2021/01/14 00:20:53;;;;;;;6.63;2.30;;;;;;;-0.62;96.69;99535.28;5004782;28;20523;-80
2021/01/14 00:23:19;;;;;;;5.60;2.53;;;;;;;-0.57;96.53;99530.81;4979104;28;20104;-80
2021/01/14 00:25:46;;;;;;;7.03;2.80;;;;;;;-0.49;96.45;99528.84;4998819;28;20139;-78
2021/01/14 00:28:13;;;;;;;5.50;2.38;;;;;;;-0.54;96.53;99533.28;4989315;28;20581;-79
2021/01/14 00:30:40;;;;;;;6.45;3.13;;;;;;;-0.85;97.48;99536.81;5009615;28;20046;-78
2021/01/14 00:33:06;;;;;;;5.30;2.65;;;;;;;-0.75;97.38;99526.22;4992200;28;20046;-80
2021/01/14 00:35:33;;;;;;;14.40;3.50;;;;;;;-0.76;97.67;99538.28;4986917;28;20035;-80
2021/01/14 00:38:04;;;;;;;8.13;2.67;;;;;;;-0.79;97.74;99540.94;4989414;28;20035;-79
2021/01/14 00:40:33;;;;;;;4.28;2.55;;;;;;;-0.79;97.60;99557.28;4992978;28;20468;-80
2021/01/14 00:43:00;;;;;;;5.45;2.65;;;;;;;-0.69;98.08;99552.69;4979220;28;20054;-79
2021/01/14 00:45:28;;;;;;;6.80;2.95;;;;;;;-0.71;98.50;99553.66;4992030;28;20054;-79
2021/01/14 00:47:55;;;;;;;8.45;3.80;;;;;;;-0.66;98.42;99555.19;5003710;28;20589;-78
2021/01/14 00:50:23;;;;;;;5.82;3.20;;;;;;;-0.62;98.52;99548.19;4989492;28;20042;-80
2021/01/14 00:52:50;;;;;;;6.10;3.50;;;;;;;-0.71;98.85;99554.50;5006765;28;20058;-79
2021/01/14 00:55:17;;;;;;;5.65;4.07;;;;;;;-0.79;99.49;99552.13;5012528;28;20064;-79
2021/01/14 00:57:45;;;;;;;7.32;4.40;;;;;;;-0.62;99.30;99559.38;4994569;28;20042;-78
2021/01/14 01:00:18;;;;;;;4.93;3.38;;;;;;;-0.60;99.08;99561.91;4974353;28;20050;-79
2021/01/14 01:02:50;;;;;;;5.75;4.28;;;;;;;-0.62;99.69;99561.13;5005796;28;20042;-79
2021/01/14 01:05:18;;;;;;;5.22;3.50;;;;;;;-0.57;99.62;99570.44;4988064;28;20077;-80
2021/01/14 01:07:49;;;;;;;4.68;3.03;;;;;;;-0.58;100.00;99567.91;4991836;28;20544;-79
2021/01/14 01:10:16;;;;;;;9.75;3.28;;;;;;;-0.62;99.87;99577.47;4974726;28;20054;-79
2021/01/14 01:12:43;;;;;;;5.50;2.20;;;;;;;-0.53;99.76;99584.94;4979493;28;20051;-80
2021/01/14 01:15:10;;;;;;;6.30;1.98;;;;;;;-0.42;99.28;99582.03;4991797;28;20053;-81
2021/01/14 01:17:37;;;;;;;4.55;1.92;;;;;;;-0.47;99.65;99590.81;4994805;28;20061;-81
2021/01/14 01:20:04;;;;;;;4.88;1.60;;;;;;;-0.51;99.83;99595.22;4989126;28;20054;-80
2021/01/14 01:22:31;;;;;;;5.30;1.70;;;;;;;-0.41;99.76;99599.22;5005799;28;20045;-80
2021/01/14 01:24:58;;;;;;;3.25;1.58;;;;;;;-0.48;100.00;99594.31;4987732;28;20050;-80
2021/01/14 01:27:26;;;;;;;4.10;1.55;;;;;;;-0.54;100.00;99603.06;4974473;28;20031;-80
2021/01/14 01:29:52;;;;;;;5.63;1.60;;;;;;;-0.66;100.00;99616.38;5006234;28;20054;-81
2021/01/14 01:32:19;;;;;;;4.93;1.92;;;;;;;-0.45;100.00;99620.94;4964098;28;20050;-80
2021/01/14 01:34:46;;;;;;;3.67;2.10;;;;;;;-0.36;100.00;99615.47;4996387;28;20096;-79
2021/01/14 01:37:13;;;;;;;2.58;1.48;;;;;;;-0.45;100.00;99620.06;4992024;28;20060;-80
2021/01/14 01:39:40;;;;;;;4.85;1.50;;;;;;;-0.51;100.00;99650.38;4980865;28;20047;-80
2021/01/14 01:42:07;;;;;;;4.70;2.25;;;;;;;-0.53;100.00;99654.75;5011417;28;20047;-80
2021/01/14 01:44:33;;;;;;;3.88;1.90;;;;;;;-0.43;100.00;99659.66;4964995;28;20197;-82
2021/01/14 01:47:07;;;;;;;2.42;1.40;;;;;;;-0.34;100.00;99667.97;4998456;28;20069;-79
2021/01/14 01:49:35;;;;;;;1.60;1.20;;;;;;;-0.30;100.00;99669.59;4977364;28;20073;-78
2021/01/14 01:52:03;;;;;;;2.13;1.40;;;;;;;-0.28;100.00;99677.28;4979519;28;20083;-79
2021/01/14 01:54:32;;;;;;;1.77;1.00;;;;;;;-0.38;100.00;99688.81;4989940;28;20058;-79
2021/01/14 01:57:06;;;;;;;2.22;1.13;;;;;;;-0.46;99.71;99701.94;4987609;28;20069;-79
2021/01/14 01:59:33;;;;;;;2.33;1.23;;;;;;;-0.55;99.46;99700.47;5009917;28;20153;-80
2021/01/14 02:02:20;;;;;;;1.48;1.05;;;;;;;-0.53;99.59;99714.22;4988204;28;20093;-80
2021/01/14 02:04:47;;;;;;;1.30;1.13;;;;;;;-0.52;99.64;99727.97;5012847;28;20043;-78
2021/01/14 02:07:38;;;;;;;1.25;0.85;;;;;;;-0.46;97.88;99739.88;5011935;28;20073;-80
2021/01/14 02:10:13;;;;;;;1.20;0.65;;;;;;;-0.32;97.25;99738.59;5005263;28;20050;-80
2021/01/14 02:12:55;;;;;;;1.15;0.80;;;;;;;-0.41;97.80;99754.38;4994388;28;21931;-79
2021/01/14 02:15:22;;;;;;;1.08;0.73;;;;;;;-0.37;97.25;99766.31;5010101;28;20064;-81
2021/01/14 02:17:52;;;;;;;1.10;0.60;;;;;;;-0.29;97.03;99776.47;4997449;28;20106;-78
2021/01/14 02:20:19;;;;;;;0.82;0.50;;;;;;;-0.36;96.34;99788.72;4994179;28;20040;-80
2021/01/14 02:22:53;;;;;;;0.63;0.50;;;;;;;-0.43;95.83;99794.94;5008109;28;20066;-80
2021/01/14 02:25:22;;;;;;;0.50;0.45;;;;;;;-0.44;96.02;99802.75;5000062;28;20077;-79
2021/01/14 02:27:50;;;;;;;0.45;0.32;;;;;;;-0.45;96.19;99814.84;4993679;28;20042;-80
2021/01/14 02:30:17;;;;;;;0.68;0.63;;;;;;;-0.48;95.94;99838.19;4979721;28;20057;-81
2021/01/14 02:32:45;;;;;;;0.73;0.52;;;;;;;-0.44;95.81;99846.72;4993054;28;20073;-81
2021/01/14 02:35:11;;;;;;;0.60;0.60;;;;;;;-0.47;96.24;99841.63;5006298;28;20051;-80
2021/01/14 02:37:38;;;;;;;0.60;0.60;;;;;;;-0.39;96.28;99852.59;4983143;28;20043;-80
2021/01/14 02:40:06;;;;;;;0.90;0.77;;;;;;;-0.42;96.57;99870.78;4970241;28;20122;-78
2021/01/14 02:42:33;;;;;;;0.75;0.70;;;;;;;-0.43;95.91;99869.94;5001298;28;20111;-80
2021/01/14 02:45:00;;;;;;;1.08;0.80;;;;;;;-0.36;94.93;99891.28;5000061;28;20073;-80
2021/01/14 02:47:27;;;;;;;2.55;1.00;;;;;;;-0.30;94.61;99891.16;4991429;28;20049;-79
2021/01/14 02:49:58;;;;;;;1.00;0.88;;;;;;;-0.53;95.29;99899.50;5005088;28;20042;-80
2021/01/14 02:52:25;;;;;;;2.72;1.15;;;;;;;-0.59;96.40;99910.81;4984420;28;20076;-79
2021/01/14 02:54:52;;;;;;;1.45;0.93;;;;;;;-0.52;95.87;99908.94;4992688;28;20045;-78
2021/01/14 02:57:19;;;;;;;5.72;1.27;;;;;;;-0.54;95.74;99921.06;5008974;28;20052;-79
2021/01/14 02:59:46;;;;;;;2.33;1.48;;;;;;;-0.49;95.35;99926.97;4982234;28;20036;-80
2021/01/14 03:02:13;;;;;;;1.63;1.23;;;;;;;-0.51;96.02;99932.16;5015643;28;20058;-80
2021/01/14 03:04:40;;;;;;;2.38;1.17;;;;;;;-0.54;95.96;99942.59;4993905;28;20119;-79
2021/01/14 03:07:07;;;;;;;1.92;1.30;;;;;;;-0.44;95.68;99950.13;5011178;28;20142;-79
2021/01/14 03:09:34;;;;;;;3.33;1.58;;;;;;;-0.57;96.75;99954.75;5006846;28;20043;-80
2021/01/14 03:12:00;;;;;;;1.98;1.70;;;;;;;-0.49;96.03;99970.94;4991403;28;20058;-80
2021/01/14 03:14:27;;;;;;;3.08;1.77;;;;;;;-0.56;96.53;99974.53;4979896;28;20076;-80
2021/01/14 03:16:54;;;;;;;3.25;2.47;;;;;;;-0.59;96.52;99987.53;4984018;28;20046;-81
2021/01/14 03:19:21;;;;;;;4.07;2.00;;;;;;;-0.54;96.82;99998.59;4966830;28;20030;-80
2021/01/14 03:21:48;;;;;;;2.85;2.08;;;;;;;-0.62;96.40;99992.78;4994088;28;20064;-81
2021/01/14 03:24:15;;;;;;;3.80;2.45;;;;;;;-0.54;96.63;100001.19;5002868;28;20026;-79
2021/01/14 03:26:41;;;;;;;4.78;2.80;;;;;;;-0.58;96.68;100020.28;5016527;28;20093;-80
2021/01/14 03:29:08;;;;;;;3.38;2.65;;;;;;;-0.54;96.63;100007.25;4992380;28;20054;-79
2021/01/14 03:31:35;;;;;;;4.28;2.40;;;;;;;-0.49;96.70;100025.22;5005340;28;20050;-81
2021/01/14 03:34:02;;;;;;;3.63;2.72;;;;;;;-0.47;96.36;100025.19;5001570;28;20055;-79
2021/01/14 03:36:32;;;;;;;4.70;2.75;;;;;;;-0.39;96.28;100049.13;5004309;28;20085;-80
2021/01/14 03:39:00;;;;;;;4.95;2.63;;;;;;;-0.46;96.78;100048.41;4998401;28;20588;-80
2021/01/14 03:41:27;;;;;;;5.80;2.97;;;;;;;-0.54;96.85;100056.38;4960675;28;20050;-78
2021/01/14 03:43:53;;;;;;;5.75;2.92;;;;;;;-0.47;96.85;100063.97;5003140;28;20051;-80
2021/01/14 03:46:20;;;;;;;6.25;2.88;;;;;;;-0.45;96.63;100077.69;5007616;28;20070;-79
2021/01/14 03:48:48;;;;;;;5.15;3.17;;;;;;;-0.47;96.74;100079.47;5005220;28;20036;-79
2021/01/14 03:51:19;;;;;;;5.85;2.70;;;;;;;-0.43;96.58;100083.72;5001583;28;20061;-80
2021/01/14 03:53:47;;;;;;;4.32;3.05;;;;;;;-0.40;96.16;100094.00;5005323;28;20088;-79
2021/01/14 03:56:14;;;;;;;5.35;3.22;;;;;;;-0.51;96.71;100099.38;4995977;28;20058;-78
2021/01/14 03:58:42;;;;;;;6.70;3.60;;;;;;;-0.42;96.85;100100.91;5005405;28;20046;-78
2021/01/14 04:01:08;;;;;;;7.30;3.92;;;;;;;-0.41;96.65;100123.28;4988779;28;20078;-78
2021/01/14 04:03:39;;;;;;;8.10;3.60;;;;;;;-0.44;97.11;100133.72;5013786;28;20061;-80
2021/01/14 04:06:07;;;;;;;7.28;4.00;;;;;;;-0.37;96.79;100130.09;4990554;28;20129;-80
2021/01/14 04:08:33;;;;;;;7.13;3.90;;;;;;;-0.40;96.40;100130.19;5004594;28;20042;-80
2021/01/14 04:11:00;;;;;;;8.52;4.07;;;;;;;-0.36;96.46;100143.03;5010282;28;20052;-80
2021/01/14 04:13:27;;;;;;;7.88;4.00;;;;;;;-0.35;96.14;100154.22;4960009;28;20070;-81
2021/01/14 04:15:54;;;;;;;6.82;3.83;;;;;;;-0.37;96.22;100155.97;4983848;28;20101;-80
2021/01/14 04:18:20;;;;;;;5.90;3.92;;;;;;;-0.38;96.63;100177.53;4977519;28;20050;-80
2021/01/14 04:20:47;;;;;;;10.02;4.03;;;;;;;-0.29;96.26;100172.19;4998939;28;20056;-79
2021/01/14 04:23:14;;;;;;;6.50;3.38;;;;;;;-0.27;96.23;100197.13;4991746;28;20034;-80
2021/01/14 04:25:41;;;;;;;7.85;3.80;;;;;;;-0.26;95.95;100188.50;5004693;28;20061;-80
2021/01/14 04:28:08;;;;;;;7.55;4.22;;;;;;;-0.20;96.16;100194.41;5008603;28;20134;-78
2021/01/14 04:30:35;;;;;;;6.35;4.35;;;;;;;-0.21;95.60;100203.91;4985650;28;20429;-80
2021/01/14 04:33:11;;;;;;;7.80;4.25;;;;;;;-0.20;96.16;100210.78;4974251;28;20058;-79
2021/01/14 04:35:58;;;;;;;7.15;4.72;;;;;;;-0.22;96.59;100220.31;4978315;28;20081;-81
2021/01/14 04:38:27;;;;;;;7.20;4.93;;;;;;;-0.20;96.13;100228.03;4986717;28;20066;-78
2021/01/14 04:40:58;;;;;;;6.10;3.90;;;;;;;-0.14;96.13;100241.69;4965212;28;20050;-80
2021/01/14 04:43:27;;;;;;;7.28;4.60;;;;;;;-0.19;96.59;100251.28;4974127;28;20128;-81
2021/01/14 04:45:55;;;;;;;7.05;4.32;;;;;;;-0.20;96.77;100259.06;4977117;28;20125;-80
2021/01/14 04:48:22;;;;;;;7.82;4.88;;;;;;;-0.18;96.63;100263.34;4978007;28;20042;-80
2021/01/14 04:50:50;;;;;;;8.38;5.15;;;;;;;-0.25;97.79;100272.09;4988760;28;20260;-78
2021/01/14 04:53:20;;;;;;;8.98;5.00;;;;;;;-0.15;96.67;100272.75;4987548;28;20124;-79
2021/01/14 04:55:48;;;;;;;9.65;5.43;;;;;;;-0.08;96.91;100284.69;4968259;28;20046;-81
2021/01/14 04:58:19;;;;;;;10.85;5.82;;;;;;;-0.07;96.44;100295.00;4990881;28;20126;-78
2021/01/14 05:00:47;;;;;;;10.57;6.20;;;;;;;-0.04;96.39;100302.72;5004011;28;20052;-81
2021/01/14 05:03:20;;;;;;;12.80;7.20;;;;;;;-0.02;96.38;100305.28;4981895;28;20106;-80
2021/01/14 05:05:49;;;;;;;17.70;6.88;;;;;;;0.05;96.10;100309.44;5014941;28;20060;-79
2021/01/14 05:08:17;;;;;;;14.35;6.80;;;;;;;-0.09;96.71;100319.19;4996229;28;20089;-80
2021/01/14 05:10:44;;;;;;;14.75;6.45;;;;;;;-0.02;96.17;100328.56;4993440;28;20047;-80
2021/01/14 05:13:11;;;;;;;12.98;6.70;;;;;;;-0.03;95.81;100332.03;4988923;28;20742;-79
2021/01/14 05:15:39;;;;;;;10.55;6.47;;;;;;;0.08;95.81;100343.00;4990397;28;20062;-80
2021/01/14 05:18:06;;;;;;;13.65;6.97;;;;;;;0.11;95.29;100335.19;4974711;28;20058;-78
2021/01/14 05:20:33;;;;;;;15.00;7.20;;;;;;;-0.06;96.31;100343.28;4992114;28;20149;-78
2021/01/14 05:23:04;;;;;;;12.40;6.75;;;;;;;0.02;96.27;100350.91;4977099;28;20401;-80
2021/01/14 05:25:31;;;;;;;13.00;7.13;;;;;;;-0.04;96.58;100359.66;4985043;28;20051;-80
2021/01/14 05:28:12;;;;;;;14.20;7.43;;;;;;;0.06;96.05;100369.81;4980853;28;20054;-78
2021/01/14 05:30:40;;;;;;;16.52;8.23;;;;;;;-0.05;95.92;100370.00;5003432;28;20042;-80
2021/01/14 05:33:13;;;;;;;15.95;8.27;;;;;;;0.06;95.97;100382.75;4991708;28;20049;-80
2021/01/14 05:35:48;;;;;;;17.10;8.45;;;;;;;0.09;95.75;100391.31;4994293;28;20058;-79
2021/01/14 05:38:22;;;;;;;16.13;9.13;;;;;;;0.03;96.06;100394.00;4990490;28;20464;-81
2021/01/14 05:44:06;;;;;;;18.20;8.95;;;;;;;0.02;96.11;100407.00;4989292;28;20491;-83
2021/01/14 05:46:33;;;;;;;16.65;8.38;;;;;;;0.18;95.62;100416.13;4986013;28;20084;-81
2021/01/14 05:49:03;;;;;;;22.27;11.00;;;;;;;0.14;95.14;100414.53;4992538;28;20049;-79
2021/01/14 05:51:30;;;;;;;16.15;9.90;;;;;;;0.11;95.66;100422.34;4985026;28;20049;-80
2021/01/14 05:54:00;;;;;;;17.52;9.07;;;;;;;0.16;94.86;100416.19;5004487;28;20094;-78
2021/01/14 05:56:33;;;;;;;17.52;9.70;;;;;;;0.07;95.27;100428.47;5001159;28;20058;-80
2021/01/14 05:59:03;;;;;;;20.65;10.23;;;;;;;-0.04;96.11;100431.25;4999623;28;20046;-80
2021/01/14 06:01:30;;;;;;;20.00;10.60;;;;;;;-0.03;96.25;100443.31;4983041;28;20157;-80
2021/01/14 06:04:13;;;;;;;22.85;10.13;;;;;;;0.00;95.90;100440.66;5008631;28;20064;-79
2021/01/14 06:06:42;;;;;;;16.70;9.82;;;;;;;0.08;95.15;100454.28;5004500;28;20065;-80
2021/01/14 06:09:10;;;;;;;21.77;9.75;;;;;;;0.05;95.39;100464.72;4993597;28;20053;-79
2021/01/14 06:11:40;;;;;;;17.13;8.88;;;;;;;0.05;95.32;100469.06;5007999;28;20034;-82
2021/01/14 06:14:31;;;;;;;21.40;10.60;;;;;;;0.05;95.22;100476.81;4970773;28;20042;-80
2021/01/14 06:17:05;;;;;;;22.52;11.15;;;;;;;-0.03;95.72;100475.22;5012997;28;20485;-80
2021/01/14 06:19:32;;;;;;;20.58;11.20;;;;;;;-0.07;96.10;100489.06;4961763;28;20037;-81
2021/01/14 06:22:03;;;;;;;19.05;10.02;;;;;;;-0.04;95.99;100494.22;4981308;28;20050;-78
2021/01/14 06:24:36;;;;;;;23.35;11.52;;;;;;;-0.07;96.33;100498.59;4999210;28;20050;-76
2021/01/14 06:27:03;;;;;;;22.63;11.57;;;;;;;-0.10;96.93;100508.97;4993618;28;20038;-78
2021/01/14 06:29:32;;;;;;;21.42;11.98;;;;;;;-0.21;96.93;100523.84;4982248;28;20061;-79
2021/01/14 06:32:15;;;;;;;23.40;11.55;;;;;;;-0.36;97.72;100538.72;5002932;28;20038;-78
2021/01/14 06:34:43;;;;;;;24.33;11.73;;;;;;;-0.38;98.17;100544.78;4997254;28;20057;-81
2021/01/14 06:37:10;;;;;;;25.67;13.65;;;;;;;-0.32;97.61;100553.28;4985555;28;20060;-79
2021/01/14 06:39:39;;;;;;;24.80;11.20;;;;;;;-0.28;98.04;100557.53;5009887;28;20042;-80
2021/01/14 06:42:14;;;;;;;21.00;10.95;;;;;;;-0.24;97.63;100563.53;5010392;28;20054;-79
2021/01/14 06:44:48;;;;;;;22.13;11.88;;;;;;;-0.18;97.07;100572.91;4992264;28;20050;-79
2021/01/14 06:47:43;;;;;;;20.33;10.25;;;;;;;-0.19;96.93;100574.66;4983722;28;20077;-80
2021/01/14 06:50:19;;;;;;;18.45;10.63;;;;;;;-0.11;96.32;100569.38;4988085;28;20030;-79
2021/01/14 06:52:55;;;;;;;17.58;10.20;;;;;;;-0.22;96.23;100584.22;5004591;28;20066;-80
2021/01/14 06:55:24;;;;;;;15.88;9.70;;;;;;;-0.22;97.19;100587.66;5010945;28;20050;-79
2021/01/14 06:58:06;;;;;;;20.95;10.32;;;;;;;-0.23;97.03;100596.28;4986512;28;20079;-81
2021/01/14 07:00:40;;;;;;;17.38;10.48;;;;;;;-0.26;96.63;100610.13;4987456;28;20069;-80
2021/01/14 07:03:12;;;;;;;15.68;9.35;;;;;;;-0.29;96.43;100615.34;5004335;28;20058;-79
2021/01/14 07:05:56;;;;;;;20.67;10.70;;;;;;;-0.29;96.21;100633.44;4986127;28;20129;-81
2021/01/14 07:08:33;;;;;;;15.23;9.05;;;;;;;-0.18;95.55;100635.00;4990576;28;20098;-80
2021/01/14 07:11:03;;;;;;;20.88;9.35;;;;;;;-0.15;94.94;100638.41;4981640;28;20049;-82
2021/01/14 07:13:42;;;;;;;17.45;9.00;;;;;;;-0.12;94.82;100653.06;4987690;28;20047;-83
2021/01/14 07:16:14;;;;;;;20.95;9.65;;;;;;;-0.03;94.88;100660.69;4985980;28;20064;-82
2021/01/14 07:18:43;;;;;;;15.45;8.65;;;;;;;-0.12;93.97;100664.25;4984057;28;20053;-81
2021/01/14 07:21:17;;;;;;;18.13;8.52;;;;;;;-0.07;93.65;100669.38;5008842;28;20030;-80
2021/01/14 07:23:53;;;;;;;15.90;8.68;;;;;;;0.02;93.63;100671.81;4975644;28;20104;-81
2021/01/14 07:26:21;;;;;;;18.15;8.57;;;;;;;-0.05;94.14;100672.78;4991494;28;20125;-81
2021/01/14 07:28:50;;;;;;;20.00;9.98;;;;;;;-0.09;93.87;100691.81;4982096;28;20315;-78
2021/01/14 07:31:24;;;;;;;16.40;8.82;;;;;;;0.01;93.68;100693.41;4989430;28;20058;-80
2021/01/14 07:33:52;;;;;;;17.77;8.65;;;;;;;0.07;93.66;100705.41;4978845;28;20070;-82
2021/01/14 07:36:24;;;;;;;17.77;8.93;;;;;;;-0.07;94.42;100710.78;4993486;28;20061;-80
2021/01/14 07:38:53;;;;;;;13.45;8.98;;;;;;;0.06;94.35;100716.63;4996100;28;20065;-80
2021/01/14 07:41:20;;;;;;;17.95;8.95;;;;;;;-0.02;94.11;100717.59;4986589;28;20085;-79
2021/01/14 07:43:47;;;;;;;14.30;7.75;;;;;;;0.06;94.47;100732.16;4982662;28;20060;-80
2021/01/14 07:46:20;;;;;;;14.80;7.70;;;;;;;0.01;94.04;100726.19;4988585;28;20102;-77
2021/01/14 07:48:48;;;;;;;21.35;7.95;;;;;;;0.08;95.45;100739.00;4999579;28;20085;-78
2021/01/14 07:51:15;;;;;;;15.32;8.52;;;;;;;0.02;95.08;100743.44;4995515;28;20093;-81
2021/01/14 07:53:43;;;;;;;18.98;7.20;;;;;;;0.06;95.34;100747.69;4991482;28;20106;-79
2021/01/14 07:56:24;;;;;;;16.70;8.13;;;;;;;0.12;94.73;100753.63;4981127;28;20054;-77
2021/01/14 07:58:55;;;;;;;14.73;7.82;;;;;;;0.32;94.39;100763.72;4994022;28;20136;-77
2021/01/14 08:01:22;;;;;;;13.93;7.38;;;;;;;0.37;94.32;100769.69;4975531;28;20164;-78
2021/01/14 08:03:50;;;;;;;15.73;7.60;;;;;;;0.63;93.39;100769.28;4972256;28;20556;-81
2021/01/14 08:06:34;;;;;;;14.60;6.78;;;;;;;0.89;92.24;100773.16;4996886;28;20042;-79
2021/01/14 08:09:09;;;;;;;14.60;6.95;;;;;;;0.96;91.91;100774.78;5003632;28;20030;-78
2021/01/14 08:11:45;;;;;;;10.85;6.13;;;;;;;0.99;91.56;100785.97;4993813;28;20058;-79
2021/01/14 08:14:16;;;;;;;13.02;6.85;;;;;;;0.92;91.95;100783.50;4986419;28;20057;-77
2021/01/14 08:16:55;;;;;;;16.05;6.90;;;;;;;0.69;93.24;100791.66;4968535;28;20050;-76
2021/01/14 08:19:29;;;;;;;11.85;6.75;;;;;;;0.80;92.96;100799.22;4967306;28;20061;-78
2021/01/14 08:21:58;;;;;;;13.35;7.22;;;;;;;1.00;92.38;100797.19;4988024;28;20125;-77
2021/01/14 08:24:32;;;;;;;14.38;5.63;;;;;;;0.83;92.35;100806.97;4970329;28;20054;-77
2021/01/14 08:27:05;;;;;;;12.05;6.30;;;;;;;0.94;92.94;100818.00;4984306;28;20066;-78
2021/01/14 08:29:43;;;;;;;14.05;6.65;;;;;;;1.08;92.67;100823.84;4981118;28;20662;-78
2021/01/14 08:32:35;;;;;;;16.75;6.10;;;;;;;1.37;91.70;100822.47;4988793;28;20073;-78
2021/01/14 08:35:23;;;;;;;12.88;6.68;;;;;;;1.29;91.45;100837.31;4978073;28;20104;-79
2021/01/14 08:38:07;;;;;;;10.55;5.57;;;;;;;1.20;91.48;100830.53;4987368;28;20054;-79
2021/01/14 08:40:36;;;;;;;11.35;5.20;;;;;;;1.20;91.79;100840.91;4985250;28;20039;-78
2021/01/14 08:43:07;;;;;;;14.27;4.65;;;;;;;1.25;91.71;100846.88;4982977;28;20076;-75
2021/01/14 08:46:04;;;;;;;10.50;4.50;;;;;;;1.26;91.30;100844.28;4984368;28;20057;-78
2021/01/14 08:48:31;;;;;;;11.18;5.78;;;;;;;1.73;94.62;100850.34;4938700;28;20106;-75
2021/01/14 08:50:58;;;;;;;11.68;7.15;;;;;;;3.02;88.37;100860.56;4982337;28;20110;-77
2021/01/14 08:53:33;;;;;;;10.88;5.47;;;;;;;4.48;81.03;100849.66;4986917;28;20058;-77
2021/01/14 08:56:04;;;;;;;9.05;4.70;;;;;;;3.70;79.29;100864.91;4967689;28;20082;-76
2021/01/14 08:58:45;;;;;;;14.00;4.75;;;;;;;2.68;83.02;100861.34;4983136;28;20686;-76
2021/01/14 09:01:23;;;;;;;8.02;4.20;;;;;;;2.20;86.99;100878.84;4999228;28;20050;-76
2021/01/14 09:03:53;;;;;;;11.30;4.80;;;;;;;1.83;88.88;100883.91;4990588;28;20078;-77
2021/01/14 09:06:34;;;;;;;11.32;3.97;;;;;;;1.74;89.30;100883.19;4956448;28;20098;-77
2021/01/14 09:09:04;;;;;;;11.25;5.00;;;;;;;1.59;90.42;100893.84;4980094;28;20039;-78
2021/01/14 09:11:31;;;;;;;9.20;4.30;;;;;;;1.72;89.81;100891.91;4985160;28;20042;-78
2021/01/14 09:14:07;;;;;;;10.35;4.43;;;;;;;1.79;89.83;100898.66;4967456;28;20064;-76
2021/01/14 09:16:34;;;;;;;9.50;3.58;;;;;;;1.43;90.89;100908.81;4972118;28;20058;-79
2021/01/14 09:19:14;;;;;;;9.32;3.50;;;;;;;1.55;90.13;100915.53;4955010;28;20065;-78
2021/01/14 09:21:41;;;;;;;6.38;3.58;;;;;;;1.76;90.20;100915.16;4991750;28;20054;-77
2021/01/14 09:24:14;;;;;;;9.73;3.50;;;;;;;1.66;90.35;100912.75;5011347;28;20891;-78
2021/01/14 09:26:42;;;;;;;9.45;3.72;;;;;;;1.75;90.41;100922.97;5010521;28;20030;-83
2021/01/14 09:29:15;;;;;;;6.15;3.13;;;;;;;1.83;90.00;100926.28;4980559;28;20042;-83
2021/01/14 09:31:42;;;;;;;8.57;3.67;;;;;;;1.77;89.86;100927.25;4997555;28;20087;-84
2021/01/14 09:34:12;;;;;;;9.07;3.03;;;;;;;1.67;90.71;100937.84;4982570;28;20035;-82
2021/01/14 09:36:38;;;;;;;7.90;2.97;;;;;;;1.62;91.26;100943.09;4976107;28;20088;-83
2021/01/14 09:39:07;;;;;;;11.35;4.47;;;;;;;1.76;91.43;100946.31;4963566;28;20129;-86
2021/01/14 09:41:36;;;;;;;5.93;3.38;;;;;;;1.72;90.81;100943.81;4964941;28;20728;-82
2021/01/14 09:44:13;;;;;;;8.02;3.67;;;;;;;1.60;91.69;100960.44;4991759;28;20122;-84
2021/01/14 09:46:44;;;;;;;7.57;3.45;;;;;;;1.37;92.42;100944.38;4997215;28;20054;-83
2021/01/14 09:49:15;;;;;;;5.28;2.97;;;;;;;1.15;94.16;100959.41;4982162;28;20073;-81
2021/01/14 09:51:43;;;;;;;6.15;3.17;;;;;;;1.16;94.31;100958.53;4991685;28;20223;-83
2021/01/14 09:54:10;;;;;;;10.05;3.30;;;;;;;1.24;93.97;100967.91;4992123;28;20034;-80
2021/01/14 09:56:41;;;;;;;8.18;3.30;;;;;;;1.30;93.99;100966.09;5007835;28;20059;-81
2021/01/14 09:59:32;;;;;;;6.38;3.20;;;;;;;1.52;92.98;100970.06;4987043;28;20057;-83
2021/01/14 10:02:28;;;;;;;10.73;3.65;;;;;;;1.54;93.24;100965.72;4987952;28;20054;-82
2021/01/14 10:04:57;;;;;;;8.40;3.97;;;;;;;1.61;92.59;100962.13;4985714;28;20042;-85
2021/01/14 10:07:25;;;;;;;7.25;4.50;;;;;;;1.56;92.88;100963.94;4973499;28;20198;-82
2021/01/14 10:09:53;;;;;;;8.43;4.00;;;;;;;1.62;92.69;100974.25;4957177;28;20047;-83
2021/01/14 10:12:21;;;;;;;13.95;4.63;;;;;;;1.80;91.64;100977.38;4972083;28;20054;-81
2021/01/14 10:14:48;;;;;;;10.50;4.68;;;;;;;2.06;91.01;100976.94;4975852;28;20042;-81
2021/01/14 10:17:17;;;;;;;7.22;4.03;;;;;;;1.90;90.04;100982.41;4972475;28;20137;-81
2021/01/14 10:19:49;;;;;;;11.57;5.07;;;;;;;2.42;88.64;100983.19;4998047;28;20052;-83
2021/01/14 10:22:36;;;;;;;10.73;4.95;;;;;;;2.36;88.24;100989.34;4970961;28;20062;-81
2021/01/14 10:25:08;;;;;;;6.57;4.53;;;;;;;2.44;87.92;100992.66;4955826;28;20065;-82
2021/01/14 10:27:35;;;;;;;9.10;4.90;;;;;;;2.48;87.10;100998.66;5002317;28;20070;-81
2021/01/14 10:30:32;;;;;;;8.80;4.93;;;;;;;2.65;87.05;101004.34;4961660;28;20138;-84
2021/01/14 10:33:08;;;;;;;8.82;4.95;;;;;;;2.23;87.97;101013.84;4975288;28;20065;-84
2021/01/14 10:35:36;;;;;;;10.48;5.70;;;;;;;2.01;89.03;101014.22;4971886;28;20055;-82
2021/01/14 10:38:03;;;;;;;9.95;6.05;;;;;;;2.05;89.16;101011.59;4984467;28;20055;-82
2021/01/14 10:40:46;;;;;;;9.20;6.13;;;;;;;2.07;89.57;101010.66;4992337;28;20058;-81
2021/01/14 10:43:34;;;;;;;11.88;5.93;;;;;;;2.02;89.47;101009.88;5003393;28;20030;-85
2021/01/14 10:46:01;;;;;;;10.70;5.88;;;;;;;2.15;87.50;101015.72;5007017;28;20122;-83
2021/01/14 10:48:38;;;;;;;13.02;6.22;;;;;;;2.15;88.17;101016.56;4966303;28;20042;-82
2021/01/14 10:51:06;;;;;;;13.07;6.05;;;;;;;1.87;88.63;101016.22;4966302;28;20046;-82
2021/01/14 10:53:40;;;;;;;15.02;7.13;;;;;;;1.92;89.47;101011.78;4957768;28;20038;-83
2021/01/14 10:56:10;;;;;;;11.40;6.23;;;;;;;1.84;88.03;101021.44;4962991;28;20039;-84
2021/01/14 10:58:39;;;;;;;9.55;6.57;;;;;;;1.92;89.20;101010.94;4991908;28;21483;-83
2021/01/14 11:01:20;;;;;;;13.90;7.07;;;;;;;1.77;88.06;101012.91;4996908;28;20069;-85
2021/01/14 11:03:48;;;;;;;11.27;6.45;;;;;;;1.96;88.16;101018.66;4990253;28;20039;-82
2021/01/14 11:06:28;;;;;;;12.30;5.85;;;;;;;1.90;87.05;101021.34;4981697;28;20110;-86
2021/01/14 11:09:06;;;;;;;10.43;6.43;;;;;;;1.87;87.72;101021.41;5018672;28;20030;-85
2021/01/14 11:11:34;;;;;;;15.27;7.43;;;;;;;2.01;87.11;101014.22;5005508;28;20109;-85
2021/01/14 11:14:04;;;;;;;10.60;5.88;;;;;;;2.29;86.57;101009.38;5000589;28;20052;-81
2021/01/14 11:16:31;;;;;;;10.45;6.07;;;;;;;2.35;85.70;101005.84;4977619;28;20027;-84
2021/01/14 11:19:13;;;;;;;10.98;6.78;;;;;;;2.19;85.74;101013.03;4984670;28;20062;-83
2021/01/14 11:21:42;;;;;;;11.10;6.65;;;;;;;2.39;85.53;101001.44;4989694;28;20046;-83
2021/01/14 11:25:01;;;;;;;10.60;6.00;;;;;;;2.28;84.57;101002.47;5005721;28;20034;-85
2021/01/14 11:27:29;;;;;;;10.13;5.88;;;;;;;2.15;85.67;101010.53;5006022;28;20026;-83
2021/01/14 11:29:57;;;;;;;9.77;6.22;;;;;;;2.54;85.24;101014.97;5004869;28;20037;-79
2021/01/14 11:32:23;;;;;;;10.98;6.20;;;;;;;2.97;83.90;101015.84;4995337;28;20056;-82
2021/01/14 11:34:55;;;;;;;9.93;6.55;;;;;;;3.10;83.16;101009.47;4991359;28;20058;-84
2021/01/14 11:37:22;;;;;;;12.60;6.72;;;;;;;2.92;82.15;101015.06;4976198;28;20018;-81
2021/01/14 11:39:49;;;;;;;11.85;7.20;;;;;;;2.94;84.38;101002.91;4987523;28;20072;-83
2021/01/14 11:42:16;;;;;;;16.23;7.07;;;;;;;2.88;83.17;101010.81;4977724;28;20666;-84
2021/01/14 11:44:43;;;;;;;13.65;6.95;;;;;;;2.45;83.94;101019.50;4978054;28;20572;-83
2021/01/14 11:47:10;;;;;;;15.32;6.68;;;;;;;1.96;85.74;101018.66;4956323;28;20053;-85